Terminal Aerodrome Forecast
Issued by NWS Lake Charles, LA

Home | Current Version | Previous Version | Text Only | Print | Product List | Glossary On
Versions: 1 2 3 4 5 6 7 8 9 10 11 12 13 14 15 16 17 18 19 20 21 22 23 24 25 26 27 28
000
FTUS44 KLCH 202242 AAA
TAFAEX
TAF AMD
KAEX 202242Z 2023/2118 30012G22KT 1SM TSRA OVC015CB
     FM202330 28010KT 4SM -SHRA BR VCTS SCT015 OVC025CB
     FM210200 VRB05KT 4SM SHRA OVC015
     FM210900 VRB03KT 4SM BR VCSH OVC015
      TEMPO 2109/2112 2SM SHRA OVC007
     FM211200 VRB03KT 1SM BR OVC007=

USA.gov is the U.S. government's official web portal to all federal, state and local government web resources and services.